createdAt,value
2022-10-19T00:00:27.142Z,59.90
2022-10-19T00:02:55.824Z,59.97
2022-10-19T00:05:23.822Z,59.77
2022-10-19T00:07:52.595Z,59.54
2022-10-19T00:10:22.623Z,59.82
2022-10-19T00:12:50.778Z,59.82
2022-10-19T00:15:26.212Z,60.03
2022-10-19T00:17:54.555Z,59.80
2022-10-19T00:20:25.420Z,59.89
2022-10-19T00:22:53.899Z,59.94
2022-10-19T00:25:24.906Z,59.58
2022-10-19T00:27:58.067Z,60.11
2022-10-19T00:30:28.174Z,59.77
2022-10-19T00:32:58.553Z,59.92
2022-10-19T00:35:27.274Z,59.78
2022-10-19T00:37:57.154Z,59.87
2022-10-19T00:40:28.805Z,60.09
2022-10-19T00:43:00.106Z,60.44
2022-10-19T00:45:35.208Z,60.04
2022-10-19T00:48:03.897Z,60.11
2022-10-19T00:50:34.972Z,60.51
2022-10-19T00:53:06.958Z,60.85
2022-10-19T00:55:36.583Z,60.38
2022-10-19T00:58:18.267Z,60.73
2022-10-19T01:01:03.533Z,60.93
2022-10-19T01:03:35.543Z,60.98
2022-10-19T01:06:05.913Z,60.85
2022-10-19T01:08:35.841Z,60.94
2022-10-19T01:11:23.963Z,60.87
2022-10-19T01:14:07.622Z,60.69
2022-10-19T01:16:51.383Z,60.53
2022-10-19T01:19:41.735Z,60.55
2022-10-19T01:22:25.533Z,60.42
2022-10-19T01:25:02.284Z,60.47
2022-10-19T01:27:46.620Z,60.54
2022-10-19T01:30:19.611Z,60.55
2022-10-19T01:33:03.482Z,61.13
2022-10-19T01:35:44.263Z,60.79
2022-10-19T01:38:24.937Z,60.78
2022-10-19T01:41:07.250Z,60.69
2022-10-19T01:43:46.125Z,60.67
2022-10-19T01:46:25.048Z,60.59
2022-10-19T01:49:02.125Z,61.04
2022-10-19T01:51:37.528Z,60.81
2022-10-19T01:54:17.455Z,60.97
2022-10-19T01:56:48.355Z,61.15
2022-10-19T01:59:24.364Z,60.93
2022-10-19T02:02:07.740Z,61.25
2022-10-19T02:04:40.033Z,61.31
2022-10-19T02:07:10.381Z,61.29
2022-10-19T02:09:42.615Z,62.07
2022-10-19T02:12:14.882Z,61.27
2022-10-19T02:14:48.547Z,61.27
2022-10-19T02:17:32.555Z,61.19
2022-10-19T02:20:02.870Z,61.72
2022-10-19T02:22:32.058Z,61.39
2022-10-19T02:25:00.780Z,61.55
2022-10-19T02:27:30.455Z,61.16
2022-10-19T02:30:06.559Z,61.35
2022-10-19T02:32:42.016Z,61.60
2022-10-19T02:35:13.549Z,61.47
2022-10-19T02:37:42.895Z,61.58
2022-10-19T02:40:17.653Z,61.64
2022-10-19T02:42:56.430Z,61.57
2022-10-19T02:45:43.265Z,61.93
2022-10-19T02:48:23.107Z,61.40
2022-10-19T02:50:54.789Z,61.86
2022-10-19T02:53:24.310Z,61.60
2022-10-19T02:55:54.149Z,61.86
2022-10-19T02:58:22.907Z,61.41
2022-10-19T03:00:54.385Z,61.78
2022-10-19T03:03:29.230Z,61.70
2022-10-19T03:05:59.110Z,61.37
2022-10-19T03:08:33.843Z,61.29
2022-10-19T03:11:04.251Z,61.91
2022-10-19T03:13:34.127Z,61.61
2022-10-19T03:16:23.631Z,61.87
2022-10-19T03:18:57.222Z,61.89
2022-10-19T03:21:30.992Z,61.71
2022-10-19T03:24:08.496Z,61.90
2022-10-19T03:26:53.845Z,61.96
2022-10-19T03:29:29.360Z,62.24
2022-10-19T03:32:02.456Z,62.29
2022-10-19T03:34:32.408Z,62.04
2022-10-19T03:37:03.412Z,62.28
2022-10-19T03:39:35.017Z,61.89
2022-10-19T03:42:04.192Z,62.33
2022-10-19T03:44:34.834Z,62.50
2022-10-19T03:47:08.473Z,62.24
2022-10-19T03:49:42.614Z,62.34
2022-10-19T03:52:17.963Z,62.49
2022-10-19T03:54:52.356Z,62.65
2022-10-19T03:57:28.506Z,62.12
2022-10-19T04:00:00.142Z,62.22
2022-10-19T04:02:31.784Z,62.16
2022-10-19T04:05:10.373Z,62.19
2022-10-19T04:07:41.240Z,62.11
2022-10-19T04:10:14.542Z,62.12
2022-10-19T04:12:53.986Z,62.27
2022-10-19T04:15:25.801Z,62.01
2022-10-19T04:18:02.400Z,62.08
2022-10-19T04:20:37.247Z,62.36
2022-10-19T04:23:06.485Z,62.36
2022-10-19T04:25:38.268Z,61.80
2022-10-19T04:28:11.893Z,62.09
2022-10-19T04:30:42.046Z,61.79
2022-10-19T04:33:18.965Z,62.01
2022-10-19T04:35:52.457Z,61.90
2022-10-19T04:38:23.508Z,62.22
2022-10-19T04:40:55.115Z,61.95
2022-10-19T04:43:28.731Z,62.09
2022-10-19T04:46:08.350Z,61.82
2022-10-19T04:48:39.186Z,61.80
2022-10-19T04:51:32.999Z,61.65
2022-10-19T04:54:02.140Z,61.71
2022-10-19T04:56:33.468Z,61.86
2022-10-19T04:59:12.524Z,61.94
2022-10-19T05:01:46.554Z,61.77
2022-10-19T05:04:16.802Z,61.84
2022-10-19T05:06:48.553Z,61.63
2022-10-19T05:09:20.121Z,61.75
2022-10-19T05:11:54.569Z,62.07
2022-10-19T05:17:00.271Z,61.98
2022-10-19T05:19:40.462Z,62.32
2022-10-19T05:22:10.451Z,62.21
2022-10-19T05:24:39.332Z,62.23
2022-10-19T05:27:10.822Z,61.94
2022-10-19T05:29:39.710Z,62.48
2022-10-19T05:32:11.236Z,62.25
2022-10-19T05:34:43.678Z,62.19
2022-10-19T05:37:16.081Z,62.60
2022-10-19T05:39:46.220Z,62.29
2022-10-19T05:42:18.765Z,62.16
2022-10-19T05:44:47.150Z,62.56
2022-10-19T05:47:18.244Z,62.73
2022-10-19T05:49:48.993Z,62.24
2022-10-19T05:52:19.279Z,62.49
2022-10-19T05:54:47.333Z,62.59
2022-10-19T05:57:15.888Z,62.58
2022-10-19T05:59:44.859Z,62.56
2022-10-19T06:02:16.127Z,62.20
2022-10-19T06:04:44.900Z,62.36
2022-10-19T06:07:13.020Z,62.84
2022-10-19T06:09:42.388Z,62.44
2022-10-19T06:12:11.175Z,62.46
2022-10-19T06:14:39.161Z,62.49
2022-10-19T06:17:07.699Z,62.47
2022-10-19T06:19:36.993Z,62.77
2022-10-19T06:22:05.367Z,62.61
2022-10-19T06:24:36.254Z,62.76
2022-10-19T06:27:07.044Z,63.18
2022-10-19T06:29:35.052Z,62.86
2022-10-19T06:32:06.034Z,62.66
2022-10-19T06:34:34.547Z,62.80
2022-10-19T06:37:02.521Z,62.85
2022-10-19T06:39:30.893Z,62.74
2022-10-19T06:41:59.120Z,62.77
2022-10-19T06:44:29.206Z,63.37
2022-10-19T06:46:58.368Z,63.13
2022-10-19T06:49:26.812Z,63.03
2022-10-19T06:51:54.818Z,62.87
2022-10-19T06:54:25.660Z,63.26
2022-10-19T06:56:53.702Z,63.14
2022-10-19T06:59:21.763Z,63.17
2022-10-19T07:01:52.561Z,62.83
2022-10-19T07:04:20.555Z,62.91
2022-10-19T07:06:48.741Z,63.06
2022-10-19T07:09:17.895Z,63.46
2022-10-19T07:11:46.384Z,63.15
2022-10-19T07:14:15.746Z,63.41
2022-10-19T07:16:43.755Z,63.50
2022-10-19T07:19:13.642Z,63.36
2022-10-19T07:21:43.983Z,63.49
2022-10-19T07:24:11.995Z,63.84
2022-10-19T07:26:39.795Z,64.16
2022-10-19T07:29:08.016Z,63.95
2022-10-19T07:31:35.844Z,63.87
2022-10-19T07:34:05.591Z,63.54
2022-10-19T07:36:37.176Z,63.49
2022-10-19T07:39:06.832Z,63.32
2022-10-19T07:41:35.864Z,63.09
2022-10-19T07:44:21.192Z,63.58
2022-10-19T07:46:52.209Z,62.91
2022-10-19T07:49:25.066Z,62.91
2022-10-19T07:52:10.962Z,63.07
2022-10-19T07:54:39.451Z,62.62
2022-10-19T07:57:13.571Z,63.07
2022-10-19T07:59:43.513Z,63.12
2022-10-19T08:02:15.974Z,62.37
2022-10-19T08:05:00.832Z,62.50
2022-10-19T08:07:34.284Z,62.29
2022-10-19T08:10:02.755Z,62.22
2022-10-19T08:12:30.779Z,62.48
2022-10-19T08:14:58.682Z,62.33
2022-10-19T08:17:28.547Z,61.92
2022-10-19T08:19:56.480Z,61.83
2022-10-19T08:22:24.811Z,62.38
2022-10-19T08:24:54.203Z,62.45
2022-10-19T08:27:22.163Z,61.85
2022-10-19T08:29:50.628Z,62.06
2022-10-19T08:32:19.376Z,61.38
2022-10-19T08:34:47.313Z,61.35
2022-10-19T08:37:25.804Z,61.40
2022-10-19T08:40:06.610Z,61.72
2022-10-19T08:42:52.207Z,61.33
2022-10-19T08:48:26.486Z,61.61
2022-10-19T08:50:57.082Z,61.19
2022-10-19T08:56:51.117Z,61.65
2022-10-19T08:59:29.782Z,61.20
2022-10-19T09:02:01.290Z,61.14
2022-10-19T09:04:34.038Z,61.30
2022-10-19T09:07:21.144Z,61.13
2022-10-19T09:09:55.340Z,60.81
2022-10-19T09:12:37.228Z,60.78
2022-10-19T09:15:08.818Z,61.05
2022-10-19T09:17:36.699Z,60.82
2022-10-19T09:20:17.249Z,60.42
2022-10-19T09:22:46.066Z,59.98
2022-10-19T09:25:26.933Z,60.75
2022-10-19T09:28:16.955Z,59.42
2022-10-19T09:31:06.350Z,59.98
2022-10-19T09:33:38.301Z,59.73
2022-10-19T09:36:10.399Z,60.12
2022-10-19T09:38:40.174Z,60.17
2022-10-19T09:41:19.354Z,60.15
2022-10-19T09:43:54.548Z,59.48
2022-10-19T09:46:32.215Z,59.93
2022-10-19T09:49:02.466Z,59.75
2022-10-19T09:51:41.798Z,59.40
2022-10-19T09:54:32.350Z,59.82
2022-10-19T09:57:00.392Z,59.52
2022-10-19T10:02:23.810Z,58.90
2022-10-19T10:04:57.665Z,59.13
2022-10-19T10:07:33.972Z,59.38
2022-10-19T10:10:02.204Z,58.99
2022-10-19T10:12:30.032Z,58.65
2022-10-19T10:14:59.602Z,58.93
2022-10-19T10:17:31.794Z,58.97
2022-10-19T10:20:20.401Z,58.74
2022-10-19T10:22:57.317Z,58.51
2022-10-19T10:25:33.434Z,58.54
2022-10-19T10:28:04.171Z,58.46
2022-10-19T10:30:37.039Z,58.45
2022-10-19T10:33:13.460Z,58.58
2022-10-19T10:35:56.377Z,58.54
2022-10-19T10:38:34.961Z,58.92
2022-10-19T10:41:07.937Z,58.55
2022-10-19T10:43:41.391Z,58.42
2022-10-19T10:46:21.711Z,58.45
2022-10-19T10:48:57.510Z,58.34
2022-10-19T10:51:33.857Z,58.33
2022-10-19T10:54:16.701Z,58.48
2022-10-19T10:56:46.695Z,58.42
2022-10-19T10:59:20.653Z,58.50
2022-10-19T11:01:59.883Z,58.07
2022-10-19T11:04:36.162Z,58.52
2022-10-19T11:07:16.774Z,58.22
2022-10-19T11:09:47.829Z,58.22
2022-10-19T11:12:20.296Z,58.62
2022-10-19T11:14:52.455Z,58.35
2022-10-19T11:17:26.840Z,58.05
2022-10-19T11:19:55.719Z,58.27
2022-10-19T11:22:43.177Z,58.07
2022-10-19T11:25:28.708Z,58.14
2022-10-19T11:28:02.631Z,58.34
2022-10-19T11:30:35.008Z,58.06
2022-10-19T11:33:15.556Z,58.37
2022-10-19T11:35:53.118Z,58.33
2022-10-19T11:38:33.091Z,58.13
2022-10-19T11:41:18.623Z,58.35
2022-10-19T11:43:57.853Z,58.34
2022-10-19T11:46:33.821Z,58.27
2022-10-19T11:49:14.315Z,58.49
2022-10-19T11:51:49.925Z,58.91
2022-10-19T11:54:33.494Z,58.49
2022-10-19T11:57:11.677Z,58.80
2022-10-19T11:59:51.367Z,58.87
2022-10-19T12:02:58.507Z,58.97
2022-10-19T12:05:35.157Z,58.58
2022-10-19T12:08:23.169Z,58.78
2022-10-19T12:11:03.280Z,59.10
2022-10-19T12:13:37.763Z,58.87
2022-10-19T12:16:07.075Z,58.56
2022-10-19T12:18:40.533Z,58.51
2022-10-19T12:21:15.777Z,58.65
2022-10-19T12:23:47.243Z,58.94
2022-10-19T12:28:52.170Z,58.86
2022-10-19T12:31:23.145Z,58.83
2022-10-19T12:33:59.056Z,59.01
2022-10-19T12:36:36.960Z,59.31
2022-10-19T12:39:13.441Z,59.21
2022-10-19T12:41:47.142Z,58.77
2022-10-19T12:44:34.181Z,58.82
2022-10-19T12:47:11.228Z,58.49
2022-10-19T12:49:46.842Z,58.60
2022-10-19T12:52:18.878Z,58.60
2022-10-19T12:54:47.467Z,58.36
2022-10-19T12:57:29.916Z,57.94
2022-10-19T13:00:05.204Z,57.87
2022-10-19T13:02:39.157Z,58.45
2022-10-19T13:05:08.167Z,57.98
2022-10-19T13:07:38.105Z,58.15
2022-10-19T13:10:10.162Z,57.78
2022-10-19T13:12:47.163Z,57.83
2022-10-19T13:15:51.911Z,57.16
2022-10-19T13:19:07.480Z,57.25
2022-10-19T13:21:46.702Z,57.63
2022-10-19T13:24:29.297Z,57.11
2022-10-19T13:27:40.677Z,57.36
2022-10-19T13:30:54.602Z,56.86
2022-10-19T13:33:52.382Z,57.30
2022-10-19T13:36:22.045Z,56.97
2022-10-19T13:39:06.569Z,56.69
2022-10-19T13:42:00.149Z,56.59
2022-10-19T13:44:35.872Z,56.14
2022-10-19T13:47:25.460Z,56.12
2022-10-19T13:50:07.864Z,55.92
2022-10-19T13:52:59.663Z,56.28
2022-10-19T14:04:04.554Z,56.48
2022-10-19T14:06:37.631Z,56.08
2022-10-19T14:09:48.418Z,56.28
2022-10-19T14:12:24.038Z,56.20
2022-10-19T14:14:53.822Z,56.04
2022-10-19T14:17:25.823Z,55.82
2022-10-19T14:19:58.096Z,56.06
2022-10-19T14:22:30.209Z,55.62
2022-10-19T14:25:03.503Z,55.80
2022-10-19T14:27:33.343Z,55.43
2022-10-19T14:30:01.952Z,55.57
2022-10-19T14:35:23.049Z,55.91
2022-10-19T14:37:52.010Z,55.78
2022-10-19T14:40:30.795Z,56.11
2022-10-19T14:43:00.482Z,56.17
2022-10-19T14:45:30.704Z,55.91
2022-10-19T14:48:01.519Z,56.62
2022-10-19T14:50:44.354Z,56.19
2022-10-19T14:53:26.020Z,56.95
2022-10-19T14:55:58.218Z,56.13
2022-10-19T14:58:28.238Z,55.71
2022-10-19T15:00:56.822Z,56.00
2022-10-19T15:03:31.934Z,56.25
2022-10-19T15:06:10.240Z,55.78
2022-10-19T15:08:42.913Z,56.39
2022-10-19T15:11:23.458Z,56.18
2022-10-19T15:13:59.714Z,56.65
2022-10-19T15:16:47.135Z,56.41
2022-10-19T15:19:27.557Z,56.40
2022-10-19T15:22:15.731Z,56.47
2022-10-19T15:24:57.940Z,56.58
2022-10-19T15:27:32.168Z,56.23
2022-10-19T15:30:02.807Z,56.07
2022-10-19T15:32:35.315Z,56.55
2022-10-19T15:35:12.533Z,56.46
2022-10-19T15:37:46.299Z,56.77
2022-10-19T15:40:21.432Z,56.63
2022-10-19T15:42:49.396Z,56.88
2022-10-19T15:45:35.893Z,56.91
2022-10-19T15:48:25.300Z,56.94
2022-10-19T15:50:54.199Z,57.15
2022-10-19T15:53:24.163Z,57.38
2022-10-19T15:55:52.001Z,57.38
2022-10-19T15:58:21.641Z,57.11
2022-10-19T16:00:49.976Z,57.19
2022-10-19T16:03:17.757Z,57.68
2022-10-19T16:05:46.311Z,57.59
2022-10-19T16:08:14.970Z,57.68
2022-10-19T16:10:44.216Z,57.48
2022-10-19T16:13:12.561Z,57.59
2022-10-19T16:15:40.378Z,57.88
2022-10-19T16:18:08.194Z,57.88
2022-10-19T16:20:36.477Z,57.84
2022-10-19T16:23:04.345Z,58.16
2022-10-19T16:25:32.469Z,58.16
2022-10-19T16:28:02.233Z,58.08
2022-10-19T16:30:30.088Z,58.25
2022-10-19T16:32:58.361Z,58.32
2022-10-19T16:35:26.327Z,58.18
2022-10-19T16:37:54.192Z,58.61
2022-10-19T16:40:22.766Z,58.67
2022-10-19T16:42:50.568Z,58.66
2022-10-19T23:46:13.263Z,65.35
2022-10-19T23:48:47.713Z,65.25
2022-10-19T23:51:46.209Z,65.21
2022-10-19T23:54:35.378Z,65.18
2022-10-19T23:57:24.066Z,65.28
